Time;durP1;ratioP1;P1;durP2;ratioP2;P2;SDS_P1;SDS_P2;PMS_P1;PMS_P2;Temp;Humidity;BMP_temperature;BMP_pressure;BME280_temperature;BME280_humidity;BME280_pressure;Samples;Min_cycle;Max_cycle;Signal;HPM_P1;HPM_P2
2022/06/11 00:00:34;;;;;;;20.65;18.75;;;;;;;18.95;100.00;98762.59;5113558;28;20195;-60
2022/06/11 00:03:01;;;;;;;19.35;17.55;;;;;;;19.05;100.00;98770.63;5113273;28;20289;-60
2022/06/11 00:05:27;;;;;;;19.02;17.30;;;;;;;19.06;100.00;98775.75;5113756;28;20218;-63
2022/06/11 00:07:54;;;;;;;20.70;18.65;;;;;;;19.02;100.00;98769.03;5113609;28;20198;-61
2022/06/11 00:10:23;;;;;;;19.85;18.10;;;;;;;19.01;100.00;98763.91;5113729;28;20221;-61
2022/06/11 00:12:50;;;;;;;20.95;18.77;;;;;;;18.99;100.00;98761.38;5113260;28;20202;-61
2022/06/11 00:15:17;;;;;;;21.65;18.92;;;;;;;18.98;100.00;98743.91;5110829;28;20226;-61
2022/06/11 00:17:44;;;;;;;22.08;19.85;;;;;;;18.99;100.00;98740.34;5113169;28;20197;-60
2022/06/11 00:20:12;;;;;;;21.48;19.48;;;;;;;19.06;100.00;98743.38;5113125;28;20191;-60
2022/06/11 00:22:40;;;;;;;22.33;19.90;;;;;;;19.05;100.00;98731.16;5113232;28;20570;-60
2022/06/11 00:25:09;;;;;;;22.95;20.60;;;;;;;19.05;100.00;98739.06;5112478;28;20297;-60
2022/06/11 00:27:37;;;;;;;23.10;20.80;;;;;;;19.09;100.00;98733.44;5113067;28;20203;-60
2022/06/11 00:30:06;;;;;;;22.60;20.50;;;;;;;19.15;100.00;98732.97;5112930;28;20201;-59
2022/06/11 00:32:33;;;;;;;24.48;21.10;;;;;;;19.20;100.00;98729.97;5113094;28;20740;-60
2022/06/11 00:35:03;;;;;;;22.98;20.52;;;;;;;19.31;100.00;98737.03;5113316;28;20828;-60
2022/06/11 00:37:30;;;;;;;24.60;20.52;;;;;;;19.32;100.00;98733.47;5113086;28;20206;-59
2022/06/11 00:39:57;;;;;;;22.10;19.75;;;;;;;19.35;100.00;98741.13;5113555;28;20742;-59
2022/06/11 00:42:28;;;;;;;23.08;20.67;;;;;;;19.36;100.00;98735.75;5112570;28;20195;-59
2022/06/11 00:45:30;;;;;;;24.23;21.75;;;;;;;19.26;100.00;98726.88;5112969;28;20257;-58
2022/06/11 00:48:02;;;;;;;22.77;20.58;;;;;;;19.19;100.00;98712.50;5050072;28;20200;-59
2022/06/11 00:50:37;;;;;;;23.08;20.63;;;;;;;19.34;100.00;98734.19;5102075;28;20277;-59
2022/06/11 00:53:12;;;;;;;23.40;20.95;;;;;;;19.34;100.00;98731.56;5112842;28;20199;-59
2022/06/11 00:55:42;;;;;;;23.98;21.58;;;;;;;19.35;100.00;98728.81;5112416;28;20775;-59
2022/06/11 00:58:12;;;;;;;25.92;22.27;;;;;;;19.37;100.00;98739.22;5112005;28;20667;-59
2022/06/11 01:00:43;;;;;;;23.70;21.17;;;;;;;19.38;100.00;98743.53;5112521;28;20297;-59
2022/06/11 01:03:13;;;;;;;25.20;22.02;;;;;;;19.40;100.00;98742.47;5112348;28;20202;-60
2022/06/11 01:05:46;;;;;;;25.17;21.73;;;;;;;19.48;100.00;98748.00;5112163;28;20689;-59
2022/06/11 01:08:29;;;;;;;22.60;20.42;;;;;;;19.40;100.00;98739.84;5112457;28;20646;-59
2022/06/11 01:11:30;;;;;;;23.73;21.00;;;;;;;19.30;100.00;98741.47;5112266;28;20282;-58
2022/06/11 01:14:10;;;;;;;23.60;21.17;;;;;;;19.37;100.00;98747.94;5112071;28;20237;-59
2022/06/11 01:16:46;;;;;;;24.05;21.10;;;;;;;19.27;100.00;98741.72;5112329;28;20569;-61
2022/06/11 01:19:36;;;;;;;24.80;22.25;;;;;;;19.29;100.00;98737.19;5112017;28;20189;-61
2022/06/11 01:22:17;;;;;;;24.75;22.23;;;;;;;19.40;100.00;98742.47;5111984;28;20198;-61
2022/06/11 01:24:56;;;;;;;24.65;20.50;;;;;;;19.46;100.00;98741.13;5112002;28;20285;-62
2022/06/11 01:27:38;;;;;;;24.85;22.23;;;;;;;19.42;100.00;98735.25;5112092;28;20277;-60
2022/06/11 01:30:09;;;;;;;24.05;21.25;;;;;;;19.43;100.00;98742.19;5111907;28;20194;-58
2022/06/11 01:32:48;;;;;;;24.25;21.67;;;;;;;19.48;100.00;98737.47;5111695;28;20285;-60
2022/06/11 01:35:38;;;;;;;24.27;21.80;;;;;;;19.49;100.00;98733.03;5111803;28;20197;-61
2022/06/11 01:38:11;;;;;;;21.77;19.50;;;;;;;19.54;100.00;98736.13;5103988;28;20213;-61
2022/06/11 01:40:43;;;;;;;21.90;19.05;;;;;;;19.55;100.00;98748.34;5111708;28;20284;-60
2022/06/11 01:43:18;;;;;;;20.83;18.90;;;;;;;19.54;100.00;98746.66;5111849;28;20200;-60
2022/06/11 01:45:47;;;;;;;21.45;19.33;;;;;;;19.49;100.00;98744.41;5111453;28;20214;-60
2022/06/11 01:48:19;;;;;;;21.08;19.20;;;;;;;19.35;100.00;98726.19;5111523;28;20196;-60
2022/06/11 01:50:52;;;;;;;21.95;19.75;;;;;;;19.50;100.00;98742.63;5111567;28;20191;-60
2022/06/11 01:53:38;;;;;;;21.80;19.77;;;;;;;19.57;100.00;98749.91;5111332;28;20646;-60
2022/06/11 01:56:20;;;;;;;22.95;20.55;;;;;;;19.51;100.00;98739.03;5111381;28;20317;-59
2022/06/11 01:59:04;;;;;;;21.00;17.90;;;;;;;19.57;100.00;98741.16;5111297;28;20201;-60
2022/06/11 02:01:43;;;;;;;21.65;19.55;;;;;;;19.54;100.00;98747.50;5111406;28;20582;-60
2022/06/11 02:04:19;;;;;;;21.60;19.58;;;;;;;19.53;100.00;98743.19;5111434;28;20200;-60
2022/06/11 02:06:56;;;;;;;20.90;18.80;;;;;;;19.49;100.00;98754.09;5111041;28;20228;-59
2022/06/11 02:09:36;;;;;;;20.90;18.92;;;;;;;19.43;100.00;98751.88;5111152;28;20674;-60
2022/06/11 02:12:11;;;;;;;20.17;17.60;;;;;;;19.36;100.00;98758.59;5111737;28;20202;-60
2022/06/11 02:14:45;;;;;;;23.00;16.10;;;;;;;19.20;100.00;98765.00;5111159;28;20196;-60
2022/06/11 02:17:18;;;;;;;23.05;18.67;;;;;;;19.02;100.00;98753.25;5111073;28;20190;-65
2022/06/11 02:19:50;;;;;;;22.67;17.45;;;;;;;18.90;100.00;98748.94;5111007;28;20194;-62
2022/06/11 02:22:22;;;;;;;24.80;17.35;;;;;;;18.65;100.00;98736.75;5110885;28;20240;-60
2022/06/11 02:24:53;;;;;;;23.42;18.75;;;;;;;18.36;100.00;98725.75;5110895;28;20554;-69
2022/06/11 02:27:24;;;;;;;22.35;16.52;;;;;;;18.17;100.00;98712.28;5110840;28;20220;-61
2022/06/11 02:29:53;;;;;;;15.68;13.30;;;;;;;17.94;100.00;98708.69;5111024;28;20212;-67
2022/06/11 02:32:24;;;;;;;14.17;12.23;;;;;;;17.83;100.00;98731.41;5111335;28;20730;-67
2022/06/11 02:34:54;;;;;;;17.53;14.60;;;;;;;17.78;100.00;98740.44;5110950;28;20237;-64
2022/06/11 02:37:26;;;;;;;18.97;16.93;;;;;;;17.82;100.00;98759.44;5111390;28;20186;-58
2022/06/11 02:39:55;;;;;;;21.67;18.53;;;;;;;17.90;100.00;98756.25;5110204;28;20281;-58
2022/06/11 02:42:24;;;;;;;22.53;20.23;;;;;;;17.92;100.00;98759.63;5097485;28;20237;-58
2022/06/11 02:44:51;;;;;;;23.83;21.30;;;;;;;17.98;100.00;98752.13;5089524;28;20223;-56
2022/06/11 02:47:21;;;;;;;25.53;22.90;;;;;;;18.09;100.00;98743.50;5089501;28;20268;-65
2022/06/11 02:49:49;;;;;;;33.23;21.60;;;;;;;18.06;100.00;98746.31;5089323;28;20215;-65
2022/06/11 02:52:19;;;;;;;25.45;22.23;;;;;;;18.03;100.00;98751.81;5089282;28;20219;-65
2022/06/11 02:54:49;;;;;;;24.40;21.87;;;;;;;17.94;100.00;98750.69;5089315;28;20329;-65
2022/06/11 02:57:21;;;;;;;27.37;23.17;;;;;;;17.96;100.00;98751.41;5089640;28;20268;-66
2022/06/11 02:59:50;;;;;;;26.33;23.00;;;;;;;17.94;100.00;98748.06;5089637;28;20219;-57
2022/06/11 03:02:17;;;;;;;24.57;21.93;;;;;;;17.99;100.00;98753.81;5093397;28;20222;-58
2022/06/11 03:04:46;;;;;;;24.87;22.17;;;;;;;17.96;100.00;98747.94;5108693;28;20223;-58
2022/06/11 03:07:13;;;;;;;27.27;22.93;;;;;;;17.86;100.00;98728.53;5109342;27;20313;-58
2022/06/11 03:09:41;;;;;;;24.53;21.93;;;;;;;17.95;100.00;98744.47;5109817;28;20225;-58
2022/06/11 03:12:10;;;;;;;25.03;22.33;;;;;;;17.93;100.00;98743.78;5109807;28;20254;-58
2022/06/11 03:14:37;;;;;;;23.42;20.90;;;;;;;18.06;100.00;98741.91;5109602;28;20222;-57
2022/06/11 03:17:05;;;;;;;24.73;22.10;;;;;;;18.00;100.00;98741.53;5109806;28;20309;-57
2022/06/11 03:19:33;;;;;;;27.00;21.07;;;;;;;17.97;100.00;98736.50;5109439;28;20226;-58
2022/06/11 03:22:01;;;;;;;23.00;20.70;;;;;;;17.94;100.00;98736.72;5113198;28;20205;-58
2022/06/11 03:24:29;;;;;;;27.15;21.05;;;;;;;17.93;100.00;98737.69;5114075;28;20513;-57
2022/06/11 03:26:56;;;;;;;25.38;21.70;;;;;;;17.89;100.00;98736.22;5114073;28;20218;-58
2022/06/11 03:29:24;;;;;;;23.47;20.97;;;;;;;17.84;100.00;98738.31;5113572;28;20222;-58
2022/06/11 03:31:52;;;;;;;22.20;19.70;;;;;;;17.97;100.00;98734.72;5114171;28;20197;-58
2022/06/11 03:34:20;;;;;;;22.40;20.10;;;;;;;18.02;100.00;98743.09;5114062;28;20281;-57
2022/06/11 03:36:48;;;;;;;28.93;20.47;;;;;;;17.92;100.00;98717.63;5114016;28;20197;-58
2022/06/11 03:39:17;;;;;;;24.27;21.67;;;;;;;18.04;100.00;98745.63;5105432;28;20703;-56
2022/06/11 03:41:44;;;;;;;22.73;20.43;;;;;;;18.04;100.00;98738.59;5103410;28;20230;-58
2022/06/11 03:44:12;;;;;;;28.10;22.23;;;;;;;18.14;100.00;98744.00;5111730;28;20194;-57
2022/06/11 03:46:38;;;;;;;23.60;21.20;;;;;;;18.14;100.00;98741.38;5109195;28;20206;-58
2022/06/11 03:49:05;;;;;;;24.30;21.60;;;;;;;18.15;100.00;98750.94;5111628;28;20191;-58
2022/06/11 03:51:33;;;;;;;25.60;21.83;;;;;;;18.20;100.00;98753.22;5111578;28;20865;-58
2022/06/11 03:54:00;;;;;;;25.48;22.80;;;;;;;18.27;100.00;98755.31;5108940;28;20246;-66
2022/06/11 03:56:28;;;;;;;25.52;22.90;;;;;;;18.33;100.00;98756.66;5111670;28;20229;-66
2022/06/11 03:58:55;;;;;;;25.73;22.88;;;;;;;18.34;100.00;98760.97;5110242;28;20190;-66
2022/06/11 04:01:23;;;;;;;25.80;22.45;;;;;;;18.46;100.00;98765.31;5107801;28;20195;-57
2022/06/11 04:03:58;;;;;;;25.67;22.40;;;;;;;18.46;100.00;98768.78;5110237;27;20187;-57
2022/06/11 04:06:28;;;;;;;25.75;23.10;;;;;;;18.44;100.00;98767.22;5107353;28;20308;-57
2022/06/11 04:08:56;;;;;;;27.83;24.92;;;;;;;18.49;100.00;98775.63;5107394;28;20279;-65
2022/06/11 04:11:24;;;;;;;33.38;25.80;;;;;;;18.59;100.00;98781.06;5113160;27;20202;-58
2022/06/11 04:13:53;;;;;;;31.30;27.30;;;;;;;18.57;100.00;98777.69;5111790;27;20577;-58
2022/06/11 04:16:27;;;;;;;33.00;27.83;;;;;;;18.60;100.00;98780.13;5110427;27;20281;-58
2022/06/11 04:18:54;;;;;;;35.95;28.58;;;;;;;18.60;100.00;98783.59;5108763;28;20201;-58
2022/06/11 04:21:22;;;;;;;35.33;27.98;;;;;;;18.59;100.00;98781.91;5111396;28;20201;-65
2022/06/11 04:23:52;;;;;;;35.42;29.63;;;;;;;18.56;100.00;98771.59;5111837;28;20561;-66
2022/06/11 04:26:22;;;;;;;32.17;28.77;;;;;;;18.63;100.00;98788.59;5111212;28;20210;-58
2022/06/11 04:28:50;;;;;;;31.60;27.95;;;;;;;18.74;100.00;98796.53;5110673;28;20191;-59
2022/06/11 04:31:19;;;;;;;33.58;28.27;;;;;;;18.82;100.00;98804.72;5108603;28;20622;-58
2022/06/11 04:33:48;;;;;;;30.00;26.38;;;;;;;18.83;100.00;98806.41;5106387;28;20195;-58
2022/06/11 04:36:17;;;;;;;33.60;25.98;;;;;;;18.76;100.00;98813.03;5109391;28;20194;-58
2022/06/11 04:38:44;;;;;;;32.08;26.55;;;;;;;18.67;100.00;98797.09;5109443;28;20193;-59
2022/06/11 04:41:11;;;;;;;30.02;26.33;;;;;;;18.71;100.00;98811.72;5107747;28;20579;-59
2022/06/11 04:43:38;;;;;;;29.05;25.98;;;;;;;18.74;100.00;98807.06;5109294;28;20198;-58
2022/06/11 04:46:06;;;;;;;29.90;26.77;;;;;;;18.76;100.00;98812.19;5110007;28;20226;-57
2022/06/11 04:48:34;;;;;;;26.90;21.65;;;;;;;18.63;100.00;98814.88;5110368;28;20225;-58
2022/06/11 04:51:03;;;;;;;18.83;16.77;;;;;;;18.53;100.00;98816.47;5110596;28;20647;-57
2022/06/11 04:53:30;;;;;;;16.20;14.70;;;;;;;18.47;100.00;98822.19;5111121;28;20230;-57
2022/06/11 08:12:54;;;;;;;15.45;13.90;;;;;;;18.99;100.00;98897.28;5128321;27;20548;-58
2022/06/11 08:15:21;;;;;;;17.70;14.10;;;;;;;19.10;100.00;98900.81;5128518;28;20197;-57
2022/06/11 08:17:48;;;;;;;16.90;13.90;;;;;;;19.27;100.00;98907.47;5127910;27;20188;-57
2022/06/11 08:20:18;;;;;;;18.48;16.67;;;;;;;19.26;100.00;98908.44;5133015;27;20280;-57
2022/06/11 08:22:44;;;;;;;17.38;15.73;;;;;;;19.18;100.00;98908.16;5149035;27;20250;-54
2022/06/11 08:25:12;;;;;;;17.27;15.60;;;;;;;19.17;100.00;98912.59;5144569;27;20197;-54
2022/06/11 08:27:38;;;;;;;18.40;16.38;;;;;;;19.35;100.00;98905.13;5120093;27;20214;-54
2022/06/11 08:30:08;;;;;;;17.30;15.48;;;;;;;19.32;100.00;98902.69;5127409;28;20612;-54
2022/06/11 08:32:35;;;;;;;14.55;12.63;;;;;;;19.20;100.00;98896.56;5140151;27;20233;-58
2022/06/11 08:35:02;;;;;;;13.07;11.77;;;;;;;19.29;100.00;98888.97;5139939;27;20225;-57
2022/06/11 08:37:29;;;;;;;14.02;12.73;;;;;;;19.08;100.00;98893.97;5135494;27;20221;-57
2022/06/11 08:39:56;;;;;;;12.35;11.05;;;;;;;19.04;100.00;98905.69;5135085;27;20213;-57
2022/06/11 08:42:32;;;;;;;10.98;9.98;;;;;;;18.96;100.00;98921.22;5135263;27;20714;-57
2022/06/11 08:45:03;;;;;;;10.45;9.65;;;;;;;18.97;100.00;98926.34;5127407;27;20278;-57
2022/06/11 08:47:37;;;;;;;12.55;11.25;;;;;;;18.97;100.00;98928.13;5126994;27;20301;-57
2022/06/11 08:50:05;;;;;;;18.83;14.07;;;;;;;18.92;100.00;98912.69;5127363;28;20218;-57
2022/06/11 08:52:32;;;;;;;19.35;14.10;;;;;;;18.80;100.00;98911.78;5127018;27;20632;-58
2022/06/11 08:55:01;;;;;;;15.38;12.65;;;;;;;18.80;100.00;98919.69;5127552;27;20233;-58
2022/06/11 08:57:44;;;;;;;12.48;11.18;;;;;;;18.75;100.00;98913.06;5126054;27;20222;-58
2022/06/11 09:00:14;;;;;;;14.98;12.45;;;;;;;18.60;100.00;98909.75;5126206;27;20222;-58
2022/06/11 09:03:04;;;;;;;21.60;14.98;;;;;;;18.56;100.00;98903.00;5126808;27;20301;-58
2022/06/11 09:05:48;;;;;;;19.83;13.80;;;;;;;18.56;100.00;98923.19;5127174;28;20225;-59
2022/06/11 09:08:36;;;;;;;16.05;12.73;;;;;;;18.49;100.00;98926.25;5126539;27;20301;-59
2022/06/11 09:11:17;;;;;;;14.30;12.80;;;;;;;18.52;100.00;98930.44;5126768;27;20249;-57
2022/06/11 09:14:14;;;;;;;13.77;12.50;;;;;;;18.48;100.00;98934.25;5133788;27;20224;-58
2022/06/11 09:16:56;;;;;;;12.68;11.45;;;;;;;18.39;100.00;98921.75;5126703;27;20679;-55
2022/06/11 09:19:41;;;;;;;13.52;12.32;;;;;;;18.57;100.00;98938.00;5133262;27;20214;-55
2022/06/11 09:22:23;;;;;;;16.65;12.70;;;;;;;18.51;100.00;98939.25;5133154;27;20616;-55
2022/06/11 09:25:19;;;;;;;14.68;13.25;;;;;;;18.48;100.00;98947.38;5133578;27;20217;-55
2022/06/11 09:27:50;;;;;;;13.95;12.40;;;;;;;18.58;100.00;98945.81;5133475;27;20846;-59
2022/06/11 09:30:24;;;;;;;15.70;12.45;;;;;;;18.56;100.00;98952.09;5132860;27;20218;-58
2022/06/11 09:32:59;;;;;;;14.00;12.75;;;;;;;18.60;100.00;98966.72;5133269;27;20217;-55
2022/06/11 09:35:37;;;;;;;13.00;11.70;;;;;;;18.47;100.00;98974.59;5132925;27;20221;-55
2022/06/11 09:38:11;;;;;;;13.43;12.15;;;;;;;18.52;100.00;98973.31;5133066;27;20218;-55
2022/06/11 09:40:42;;;;;;;12.87;11.67;;;;;;;18.54;100.00;98967.13;5132433;27;20228;-54
2022/06/11 09:43:27;;;;;;;12.90;11.57;;;;;;;18.46;100.00;98981.66;5114693;27;20745;-55
2022/06/11 09:46:03;;;;;;;13.60;12.40;;;;;;;18.54;100.00;98985.50;5112956;28;20297;-54
2022/06/11 10:00:30;;;;;;;15.73;14.18;;;;;;;18.51;100.00;98994.44;5094020;27;21106;-55
2022/06/11 10:03:09;;;;;;;18.42;16.58;;;;;;;18.47;100.00;98998.25;5095988;28;20255;-53
2022/06/11 10:05:44;;;;;;;15.50;13.93;;;;;;;18.51;100.00;99000.53;5094968;28;20729;-55
2022/06/11 10:08:18;;;;;;;18.40;16.60;;;;;;;18.52;100.00;98988.25;5107423;28;20610;-55
2022/06/11 10:10:48;;;;;;;14.75;13.40;;;;;;;18.51;100.00;98987.41;5107430;28;20221;-56
2022/06/11 10:13:28;;;;;;;14.93;13.38;;;;;;;18.61;100.00;98976.31;5107351;28;20224;-56
2022/06/11 10:15:59;;;;;;;16.50;14.73;;;;;;;18.77;100.00;98974.25;5107300;28;20226;-54
2022/06/11 10:18:31;;;;;;;13.63;12.43;;;;;;;18.97;100.00;98973.66;5106543;28;20310;-54
2022/06/11 10:21:04;;;;;;;13.07;11.98;;;;;;;19.13;100.00;98974.25;5107313;28;20301;-56
2022/06/11 10:23:38;;;;;;;13.63;12.20;;;;;;;19.30;100.00;98973.00;5107096;28;20261;-53
2022/06/11 10:26:12;;;;;;;11.40;10.60;;;;;;;19.50;100.00;98975.09;5107134;28;20211;-56
2022/06/11 10:28:42;;;;;;;11.57;10.60;;;;;;;19.62;100.00;98969.84;5107108;28;20789;-57
2022/06/11 10:31:16;;;;;;;11.48;10.50;;;;;;;19.85;100.00;98975.09;5107289;28;20738;-57
2022/06/11 10:33:49;;;;;;;10.60;9.77;;;;;;;20.19;100.00;98970.72;5106858;28;20219;-54
2022/06/11 10:36:21;;;;;;;10.48;9.70;;;;;;;20.43;100.00;98985.63;5106933;28;20305;-61
2022/06/11 10:38:54;;;;;;;11.88;9.95;;;;;;;20.59;100.00;98986.09;5107114;28;20302;-54
2022/06/11 10:41:28;;;;;;;11.35;10.48;;;;;;;20.59;100.00;98979.03;5106257;28;20246;-55
2022/06/11 10:44:06;;;;;;;10.15;9.30;;;;;;;20.80;100.00;98979.13;5106603;28;20224;-58
2022/06/11 10:46:38;;;;;;;8.65;7.93;;;;;;;20.87;100.00;98980.34;5106673;28;20214;-57
2022/06/11 10:49:05;;;;;;;8.13;7.55;;;;;;;21.08;100.00;98985.69;5105603;28;20238;-55
2022/06/11 10:51:35;;;;;;;8.13;7.45;;;;;;;21.29;100.00;98973.44;5106636;28;20229;-55
2022/06/11 10:54:12;;;;;;;7.97;7.20;;;;;;;21.17;100.00;98978.84;5106512;28;20231;-55
2022/06/11 10:56:46;;;;;;;6.57;6.20;;;;;;;20.99;100.00;98971.44;5106615;28;20525;-54
2022/06/11 10:59:22;;;;;;;6.38;5.80;;;;;;;20.91;100.00;98968.56;5105178;28;20650;-55
2022/06/11 11:01:57;;;;;;;5.68;5.38;;;;;;;20.88;100.00;98968.81;5092415;28;20305;-54
2022/06/11 11:04:39;;;;;;;5.68;5.30;;;;;;;20.89;100.00;98965.22;5089383;28;20227;-54
2022/06/11 11:07:13;;;;;;;5.60;5.30;;;;;;;21.04;100.00;98965.78;5090226;28;20708;-54
2022/06/11 11:09:39;;;;;;;6.30;5.75;;;;;;;21.18;100.00;98962.91;5089403;28;20310;-55
2022/06/11 11:12:23;;;;;;;6.90;6.40;;;;;;;21.31;100.00;98953.03;5092093;28;20325;-58
2022/06/11 11:15:00;;;;;;;7.05;6.45;;;;;;;21.65;100.00;98955.53;5091585;28;20254;-58
2022/06/11 11:17:31;;;;;;;11.20;10.05;;;;;;;21.85;100.00;98962.63;5092280;28;20313;-57
2022/06/11 11:22:58;;;;;;;7.20;6.60;;;;;;;22.01;100.00;98957.75;5092391;28;20226;-56
2022/06/11 11:25:34;;;;;;;9.73;8.80;;;;;;;21.96;100.00;98956.44;5092472;28;20680;-56
2022/06/11 11:28:02;;;;;;;14.35;12.93;;;;;;;22.08;100.00;98958.09;5091197;28;20225;-55
2022/06/11 11:30:34;;;;;;;8.48;7.68;;;;;;;22.29;100.00;98950.97;5092436;28;20242;-56
2022/06/11 11:33:24;;;;;;;10.50;9.63;;;;;;;22.50;100.00;98948.25;5091747;28;20219;-56
2022/06/11 11:36:01;;;;;;;6.05;5.75;;;;;;;22.61;100.00;98944.69;5091745;28;20588;-57
2022/06/11 11:38:28;;;;;;;7.35;6.85;;;;;;;22.86;100.00;98938.94;5091970;28;20219;-55
2022/06/11 11:40:57;;;;;;;6.60;6.07;;;;;;;22.94;100.00;98935.63;5091495;28;20491;-53
2022/06/11 11:43:26;;;;;;;5.80;5.45;;;;;;;23.03;100.00;98937.44;5091935;28;20245;-53
2022/06/11 11:45:58;;;;;;;7.07;6.57;;;;;;;23.13;100.00;98933.84;5091621;28;20284;-53
2022/06/11 11:48:31;;;;;;;5.80;5.40;;;;;;;23.28;100.00;98934.28;5090325;28;20223;-53
2022/06/11 11:51:04;;;;;;;5.40;5.07;;;;;;;23.30;100.00;98939.44;5089887;28;20210;-53
2022/06/11 11:53:39;;;;;;;4.57;4.28;;;;;;;23.44;100.00;98931.91;5090064;28;20722;-53
2022/06/11 11:56:24;;;;;;;6.55;5.82;;;;;;;23.38;100.00;98934.28;5089019;28;20295;-53
2022/06/11 11:58:55;;;;;;;5.68;5.28;;;;;;;23.31;100.00;98941.09;5089022;28;20314;-53
2022/06/11 12:01:23;;;;;;;5.55;5.22;;;;;;;23.01;100.00;98929.66;5089498;28;20221;-53
2022/06/11 12:04:02;;;;;;;4.63;4.32;;;;;;;23.20;100.00;98938.59;5089937;28;20287;-53
2022/06/11 12:06:32;;;;;;;7.13;5.78;;;;;;;23.48;100.00;98935.94;5090931;28;20253;-53
2022/06/11 12:09:02;;;;;;;6.28;5.70;;;;;;;23.38;100.00;98935.09;5091736;28;20767;-53
2022/06/11 12:11:36;;;;;;;4.43;4.20;;;;;;;23.40;100.00;98932.31;5089938;28;20200;-53
2022/06/11 12:14:11;;;;;;;5.10;4.80;;;;;;;23.67;100.00;98924.53;5091871;28;20671;-52
2022/06/11 12:16:42;;;;;;;6.10;5.60;;;;;;;23.85;100.00;98932.59;5091496;28;20213;-53
2022/06/11 12:19:23;;;;;;;8.25;6.20;;;;;;;23.93;100.00;98931.91;5091701;28;20199;-52
2022/06/11 12:21:55;;;;;;;4.97;4.68;;;;;;;23.87;100.00;98920.88;5091061;28;20199;-52
2022/06/11 12:24:28;;;;;;;5.10;4.70;;;;;;;23.99;100.00;98928.66;5091482;28;20206;-53
2022/06/11 12:27:02;;;;;;;4.38;4.18;;;;;;;24.16;100.00;98919.94;5091344;28;20199;-55
2022/06/11 12:29:35;;;;;;;4.07;3.75;;;;;;;24.15;100.00;98915.66;5091629;28;20254;-54
2022/06/11 12:32:18;;;;;;;3.60;3.40;;;;;;;24.05;100.00;98906.88;5091149;28;20721;-53
2022/06/11 12:34:47;;;;;;;3.97;3.67;;;;;;;24.03;100.00;98911.50;5088889;28;20241;-53
2022/06/11 12:37:22;;;;;;;3.42;3.22;;;;;;;23.85;100.00;98901.63;5090904;28;20227;-53
2022/06/11 12:40:01;;;;;;;3.10;2.95;;;;;;;23.80;100.00;98908.34;5089256;28;20201;-53
2022/06/11 12:42:35;;;;;;;3.75;3.42;;;;;;;23.64;100.00;98900.97;5091471;28;20197;-58
2022/06/11 12:45:11;;;;;;;4.55;4.15;;;;;;;23.49;100.00;98905.81;5091366;28;20192;-58
2022/06/11 12:48:02;;;;;;;3.38;3.28;;;;;;;23.26;100.00;98898.31;5091236;28;20734;-59
2022/06/11 12:50:44;;;;;;;4.45;4.10;;;;;;;23.30;100.00;98899.72;5087691;28;20258;-59
2022/06/11 12:53:22;;;;;;;4.13;3.80;;;;;;;23.42;100.00;98886.19;5088922;28;20199;-58
2022/06/11 12:56:18;;;;;;;4.18;3.88;;;;;;;23.54;100.00;98886.91;5086762;28;20224;-58
2022/06/11 12:59:05;;;;;;;5.28;4.97;;;;;;;23.55;100.00;98885.94;5088269;28;20620;-59
2022/06/11 13:01:42;;;;;;;11.25;10.38;;;;;;;23.52;100.00;98880.91;5086491;28;20223;-54
2022/06/11 13:04:29;;;;;;;9.15;8.35;;;;;;;23.73;100.00;98880.72;5088767;28;20667;-54
2022/06/11 13:07:10;;;;;;;4.38;4.10;;;;;;;23.98;100.00;98884.59;5086117;28;20302;-54
2022/06/11 13:09:50;;;;;;;3.58;3.28;;;;;;;24.08;100.00;98893.34;5089004;28;20266;-53
2022/06/11 13:12:26;;;;;;;3.88;3.65;;;;;;;24.17;100.00;98892.47;5087690;28;20218;-54
2022/06/11 13:15:25;;;;;;;3.75;3.45;;;;;;;24.18;100.00;98896.78;5084897;28;20225;-53
2022/06/11 13:18:05;;;;;;;4.95;3.60;;;;;;;24.17;100.00;98890.66;5087297;28;20576;-54
2022/06/11 13:20:38;;;;;;;3.60;3.40;;;;;;;24.01;100.00;98898.41;5088847;28;20245;-54
2022/06/11 13:23:15;;;;;;;4.30;4.07;;;;;;;23.83;100.00;98892.16;5089692;28;20310;-54
2022/06/11 13:25:52;;;;;;;5.22;4.20;;;;;;;23.83;100.00;98886.84;5090158;28;20241;-53
2022/06/11 13:28:41;;;;;;;4.60;4.30;;;;;;;24.00;100.00;98898.53;5090218;28;20269;-58
2022/06/11 13:31:14;;;;;;;5.05;4.70;;;;;;;24.21;100.00;98899.16;5089002;28;20219;-57
2022/06/11 13:33:59;;;;;;;4.95;4.53;;;;;;;23.87;100.00;98898.84;5089655;28;20238;-57
2022/06/11 13:36:37;;;;;;;5.35;4.85;;;;;;;23.98;100.00;98905.78;5089125;28;20667;-58
2022/06/11 13:39:20;;;;;;;4.13;3.90;;;;;;;23.85;100.00;98906.94;5090003;28;20195;-58
2022/06/11 13:41:55;;;;;;;4.32;4.13;;;;;;;23.75;100.00;98908.75;5089006;28;20683;-58
2022/06/11 13:44:48;;;;;;;5.13;4.55;;;;;;;23.77;100.00;98898.88;5089760;28;20290;-58
2022/06/11 13:47:34;;;;;;;5.30;4.90;;;;;;;23.82;100.00;98896.59;5089812;28;20207;-54
2022/06/11 13:50:18;;;;;;;4.40;4.20;;;;;;;23.90;100.00;98901.22;5090450;28;20261;-54
2022/06/11 13:55:42;;;;;;;5.60;5.00;;;;;;;24.19;100.00;98898.47;5090078;28;20194;-56
2022/06/11 13:58:42;;;;;;;5.57;5.28;;;;;;;24.48;100.00;98893.91;5089692;28;20268;-53
2022/06/11 14:01:24;;;;;;;5.80;5.28;;;;;;;24.55;100.00;98894.16;5090020;28;20213;-54
2022/06/11 14:04:31;;;;;;;5.15;4.65;;;;;;;24.52;100.00;98887.31;5090558;28;20199;-59
2022/06/11 14:07:01;;;;;;;5.95;5.45;;;;;;;24.61;100.00;98897.03;5027632;28;20287;-59
2022/06/11 14:12:44;;;;;;;5.70;5.28;;;;;;;24.65;100.00;98894.09;5018154;28;20199;-59
2022/06/11 14:15:25;;;;;;;4.72;4.43;;;;;;;24.69;100.00;98890.16;5084987;28;20290;-59
2022/06/11 14:17:54;;;;;;;5.03;4.63;;;;;;;24.56;100.00;98888.69;5090270;28;20205;-59
2022/06/11 14:20:25;;;;;;;4.43;4.18;;;;;;;24.73;100.00;98886.22;5090167;28;20230;-55
2022/06/11 14:22:58;;;;;;;4.38;4.07;;;;;;;24.69;100.00;98879.56;5089971;28;20242;-54
2022/06/11 14:25:42;;;;;;;5.47;5.03;;;;;;;24.78;100.00;98881.31;5089837;28;20234;-54
2022/06/11 14:28:47;;;;;;;4.50;4.30;;;;;;;24.82;100.00;98880.03;5088481;28;20195;-53
2022/06/11 14:31:19;;;;;;;4.47;4.22;;;;;;;24.71;100.00;98880.25;5027691;28;20315;-53
2022/06/11 14:34:18;;;;;;;4.38;3.97;;;;;;;24.49;100.00;98884.94;5027790;28;20608;-54
2022/06/11 14:37:01;;;;;;;4.10;3.70;;;;;;;24.64;100.00;98887.13;5043727;28;20191;-54
2022/06/11 14:39:32;;;;;;;4.63;4.30;;;;;;;24.72;100.00;98882.72;5094038;28;20583;-54
2022/06/11 14:42:12;;;;;;;55.90;50.47;;;;;;;24.69;100.00;98879.56;5093950;28;20695;-54
2022/06/11 14:44:40;;;;;;;12.73;11.75;;;;;;;24.62;100.00;98879.28;5093731;28;20202;-54
2022/06/11 14:47:46;;;;;;;6.65;6.15;;;;;;;24.67;100.00;98871.75;5077728;28;20214;-55
2022/06/11 14:50:50;;;;;;;5.20;4.65;;;;;;;24.59;100.00;98875.16;5072315;28;20219;-59
2022/06/11 14:53:30;;;;;;;4.07;3.78;;;;;;;24.43;100.00;98869.63;5076349;28;20229;-59
2022/06/11 14:56:12;;;;;;;5.35;5.05;;;;;;;24.40;100.00;98863.78;5091992;28;20215;-58
2022/06/11 14:59:14;;;;;;;4.75;4.43;;;;;;;24.29;100.00;98859.50;5089707;28;20258;-59
2022/06/11 15:02:05;;;;;;;5.35;5.05;;;;;;;24.28;100.00;98860.47;5092380;28;20214;-59
2022/06/11 15:04:47;;;;;;;5.80;5.40;;;;;;;24.19;100.00;98853.38;5068731;28;20219;-59
2022/06/11 15:07:34;;;;;;;6.05;5.55;;;;;;;24.19;100.00;98850.72;5091876;28;20273;-58
2022/06/11 15:10:15;;;;;;;4.65;4.45;;;;;;;24.23;100.00;98842.38;5089288;28;20319;-59
2022/06/11 15:13:14;;;;;;;5.00;4.70;;;;;;;24.24;100.00;98846.72;5089532;28;20268;-58
2022/06/11 15:15:54;;;;;;;5.68;5.38;;;;;;;24.39;100.00;98848.84;5090987;28;20298;-58
2022/06/11 15:18:30;;;;;;;4.32;3.92;;;;;;;24.40;100.00;98847.88;5090415;28;20225;-63
2022/06/11 15:20:58;;;;;;;5.18;4.65;;;;;;;24.38;100.00;98850.66;5088945;28;20221;-58
2022/06/11 15:23:31;;;;;;;5.93;5.63;;;;;;;24.48;100.00;98856.78;5091034;28;20650;-58
2022/06/11 15:26:03;;;;;;;4.32;4.05;;;;;;;24.47;100.00;98851.63;5089825;28;20223;-58